Time;durP1;ratioP1;P1;durP2;ratioP2;P2;SDS_P1;SDS_P2;PMS_P1;PMS_P2;Temp;Humidity;BMP_temperature;BMP_pressure;BME280_temperature;BME280_humidity;BME280_pressure;Samples;Min_cycle;Max_cycle;Signal;HPM_P1;HPM_P2
2022/08/18 00:01:41;;;;;;;8.85;3.03;;;;;;;16.62;100.00;98529.53;5078432;28;20119;-96
2022/08/18 00:04:09;;;;;;;11.90;3.28;;;;;;;16.61;100.00;98524.31;5088651;28;20116;-96
2022/08/18 00:06:38;;;;;;;9.55;3.13;;;;;;;16.63;100.00;98520.72;5063797;28;20166;-96
2022/08/18 00:09:08;;;;;;;11.38;3.58;;;;;;;16.57;100.00;98515.66;5067402;28;20025;-94
2022/08/18 00:11:37;;;;;;;9.93;3.03;;;;;;;16.72;100.00;98520.34;5054549;28;20145;-96
2022/08/18 00:14:03;;;;;;;10.05;3.20;;;;;;;16.58;100.00;98513.91;5061962;28;20047;-96
2022/08/18 00:16:29;;;;;;;12.27;3.13;;;;;;;16.62;100.00;98511.09;5047643;28;20041;-96
2022/08/18 00:18:55;;;;;;;11.77;3.33;;;;;;;16.41;100.00;98510.13;5058739;28;20205;-96
2022/08/18 00:21:20;;;;;;;10.60;3.08;;;;;;;16.41;100.00;98517.13;5052280;28;20055;-96
2022/08/18 00:23:46;;;;;;;12.20;3.22;;;;;;;16.65;100.00;98512.75;5048947;28;20140;-96
2022/08/18 00:26:14;;;;;;;13.48;3.50;;;;;;;16.41;100.00;98509.25;5048311;28;20044;-96
2022/08/18 00:28:40;;;;;;;13.70;3.03;;;;;;;16.55;100.00;98505.19;5051601;28;20052;-96
2022/08/18 00:31:05;;;;;;;12.10;2.78;;;;;;;16.44;100.00;98498.63;5048846;28;20055;-96
2022/08/18 00:33:32;;;;;;;13.52;2.92;;;;;;;16.58;100.00;98501.59;5066669;28;20028;-96
2022/08/18 00:35:57;;;;;;;12.05;3.05;;;;;;;16.55;100.00;98497.28;5069141;28;20024;-96
2022/08/18 00:38:24;;;;;;;10.50;2.60;;;;;;;16.40;100.00;98497.88;5045856;28;20028;-96
2022/08/18 00:40:52;;;;;;;12.00;2.47;;;;;;;16.30;100.00;98488.63;5061861;28;20028;-96
2022/08/18 00:43:38;;;;;;;10.75;2.80;;;;;;;16.31;100.00;98487.69;5043264;28;20029;-96
2022/08/18 00:46:12;;;;;;;10.05;2.60;;;;;;;16.23;100.00;98493.22;5062121;28;20031;-96
2022/08/18 00:48:38;;;;;;;9.52;2.53;;;;;;;16.25;100.00;98487.91;5049683;28;20039;-96
2022/08/18 00:51:10;;;;;;;13.23;2.88;;;;;;;16.32;100.00;98494.66;5048778;28;20028;-95
2022/08/18 00:53:46;;;;;;;8.38;2.70;;;;;;;16.44;100.00;98488.94;5064464;28;20396;-96
2022/08/18 00:56:21;;;;;;;9.13;2.90;;;;;;;16.49;100.00;98483.50;5071454;28;20067;-96
2022/08/18 00:58:58;;;;;;;10.98;2.78;;;;;;;16.49;100.00;98478.22;5052646;28;20516;-96
2022/08/18 01:01:27;;;;;;;8.93;2.45;;;;;;;16.29;100.00;98482.47;5045264;28;20024;-95
2022/08/18 01:04:02;;;;;;;10.82;2.67;;;;;;;16.32;100.00;98484.97;5047612;28;20031;-96
2022/08/18 01:06:41;;;;;;;9.05;2.50;;;;;;;16.28;100.00;98478.13;5047345;28;20403;-96
2022/08/18 01:09:08;;;;;;;9.00;2.58;;;;;;;16.27;100.00;98473.78;5054288;28;20496;-96
2022/08/18 01:11:36;;;;;;;10.23;2.70;;;;;;;16.07;100.00;98477.13;5046837;28;20825;-96
2022/08/18 01:14:04;;;;;;;11.63;2.42;;;;;;;16.41;100.00;98475.03;5044379;28;20025;-95
2022/08/18 01:22:32;;;;;;;9.65;2.45;;;;;;;16.58;100.00;98467.38;5010278;28;20092;-96
2022/08/18 01:27:45;;;;;;;12.98;3.08;;;;;;;16.44;100.00;98462.63;5006568;28;20048;-95
2022/08/18 01:30:14;;;;;;;9.70;3.30;;;;;;;16.21;100.00;98466.09;4992829;28;20717;-95
2022/08/18 01:32:44;;;;;;;11.93;3.65;;;;;;;16.32;100.00;98460.44;5006141;28;20125;-95
2022/08/18 01:35:13;;;;;;;14.20;3.80;;;;;;;16.12;100.00;98458.56;4990956;28;20033;-95
2022/08/18 01:37:40;;;;;;;10.48;3.08;;;;;;;16.24;100.00;98463.34;4990592;28;20046;-95
2022/08/18 01:40:07;;;;;;;13.55;3.90;;;;;;;16.11;100.00;98460.31;5007165;28;20092;-96
2022/08/18 01:42:38;;;;;;;12.50;3.55;;;;;;;16.33;100.00;98460.38;4991695;28;20520;-96
2022/08/18 01:45:06;;;;;;;14.40;4.30;;;;;;;16.51;100.00;98458.84;5008849;28;20044;-96
2022/08/18 01:47:33;;;;;;;13.07;3.42;;;;;;;16.85;100.00;98446.13;5008852;28;20041;-96
2022/08/18 01:49:59;;;;;;;11.40;3.50;;;;;;;16.94;100.00;98456.34;4993185;28;20058;-95
2022/08/18 01:52:26;;;;;;;12.75;3.78;;;;;;;17.02;100.00;98438.47;5015169;28;20037;-96
2022/08/18 01:54:52;;;;;;;10.82;3.45;;;;;;;17.05;100.00;98446.25;5011656;28;20122;-96
2022/08/18 01:57:19;;;;;;;14.35;4.25;;;;;;;16.90;100.00;98433.69;5005050;28;20057;-94
2022/08/18 01:59:45;;;;;;;14.93;4.68;;;;;;;16.80;100.00;98441.06;5040818;28;20044;-96
2022/08/18 02:02:15;;;;;;;13.18;4.00;;;;;;;16.15;100.00;98448.78;5040978;28;20537;-96
2022/08/18 02:04:42;;;;;;;11.52;3.65;;;;;;;16.37;100.00;98448.00;5049794;28;20050;-96
2022/08/18 02:07:10;;;;;;;14.75;3.35;;;;;;;15.81;100.00;98447.38;5046699;28;20024;-96
2022/08/18 02:09:37;;;;;;;9.95;3.35;;;;;;;16.11;100.00;98454.22;5041985;28;20031;-96
2022/08/18 02:12:06;;;;;;;9.90;2.88;;;;;;;16.10;100.00;98447.22;5048522;28;20028;-96
2022/08/18 02:14:34;;;;;;;12.88;2.70;;;;;;;15.83;100.00;98447.31;5065099;28;20024;-96
2022/08/18 02:17:02;;;;;;;8.10;2.28;;;;;;;15.70;100.00;98446.88;5065761;28;20024;-96
2022/08/18 02:19:33;;;;;;;9.07;2.28;;;;;;;15.75;100.00;98446.69;5051592;28;20032;-95
2022/08/18 02:21:59;;;;;;;12.18;2.58;;;;;;;15.86;100.00;98439.31;5069994;28;20032;-96
2022/08/18 02:24:24;;;;;;;10.45;2.42;;;;;;;16.14;100.00;98440.94;5047528;28;20117;-96
2022/08/18 02:26:50;;;;;;;10.45;2.55;;;;;;;15.83;100.00;98426.28;5061219;28;20028;-96
2022/08/18 02:29:15;;;;;;;13.93;2.88;;;;;;;16.07;100.00;98421.88;5048296;28;20123;-96
2022/08/18 02:31:41;;;;;;;7.55;2.10;;;;;;;16.15;100.00;98429.50;5048353;28;20058;-96
2022/08/18 02:34:06;;;;;;;10.10;2.38;;;;;;;16.35;100.00;98423.50;5070159;28;20036;-96
2022/08/18 02:36:32;;;;;;;9.75;2.25;;;;;;;15.94;100.00;98425.91;5060916;28;20513;-96
2022/08/18 02:38:57;;;;;;;8.93;2.20;;;;;;;16.05;100.00;98418.47;5048501;28;20039;-96
2022/08/18 02:41:25;;;;;;;13.48;2.45;;;;;;;16.01;100.00;98419.50;5049458;28;20417;-96
2022/08/18 02:43:50;;;;;;;11.27;2.33;;;;;;;16.07;100.00;98428.94;5050118;28;20025;-94
2022/08/18 02:46:15;;;;;;;10.18;2.53;;;;;;;16.21;100.00;98424.88;5063305;28;20040;-96
2022/08/18 02:48:41;;;;;;;10.75;2.55;;;;;;;16.33;100.00;98415.66;5040304;28;20032;-96
2022/08/18 02:51:13;;;;;;;10.57;2.20;;;;;;;16.24;100.00;98402.00;5069114;28;20020;-96
2022/08/18 02:53:41;;;;;;;10.18;2.33;;;;;;;16.26;100.00;98394.91;5060361;28;20040;-96
2022/08/18 02:56:21;;;;;;;12.05;2.55;;;;;;;16.12;100.00;98398.91;5054878;28;20488;-95
2022/08/18 02:58:48;;;;;;;9.13;2.38;;;;;;;16.41;100.00;98404.84;5054793;28;20068;-96
2022/08/18 03:01:15;;;;;;;8.85;2.30;;;;;;;16.54;100.00;98398.16;5048620;28;20032;-95
2022/08/18 03:03:40;;;;;;;8.05;2.22;;;;;;;15.96;100.00;98403.84;5067640;28;20035;-96
2022/08/18 03:06:07;;;;;;;9.68;2.45;;;;;;;15.94;100.00;98403.06;5047977;28;20020;-96
2022/08/18 03:08:32;;;;;;;10.10;2.30;;;;;;;15.97;100.00;98396.84;5048891;28;20036;-96
2022/08/18 03:10:58;;;;;;;7.65;2.00;;;;;;;16.13;100.00;98403.25;5064037;28;20024;-96
2022/08/18 03:13:24;;;;;;;9.30;2.17;;;;;;;16.71;100.00;98397.53;5043186;28;20047;-96
2022/08/18 03:15:50;;;;;;;10.55;2.63;;;;;;;16.32;100.00;98384.13;5048668;28;20029;-96
2022/08/18 03:18:15;;;;;;;12.48;2.50;;;;;;;16.60;100.00;98389.16;5047351;28;20024;-95
2022/08/18 03:20:44;;;;;;;10.20;2.00;;;;;;;16.57;100.00;98381.41;5063644;28;20115;-96
2022/08/18 03:23:10;;;;;;;9.23;2.22;;;;;;;16.81;100.00;98383.97;5041718;28;20425;-95
2022/08/18 03:25:43;;;;;;;8.45;2.33;;;;;;;16.74;100.00;98380.72;5043025;28;20057;-96
2022/08/18 03:28:08;;;;;;;8.73;2.50;;;;;;;16.83;100.00;98375.09;5043518;28;20025;-95
2022/08/18 03:30:34;;;;;;;14.25;3.22;;;;;;;16.75;100.00;98384.22;5048769;28;20440;-96
2022/08/18 03:33:29;;;;;;;8.02;2.10;;;;;;;16.71;100.00;98375.59;5047693;28;20028;-96
2022/08/18 03:35:55;;;;;;;8.50;2.25;;;;;;;16.55;100.00;98378.00;5047135;28;20492;-96
2022/08/18 03:38:21;;;;;;;10.95;2.65;;;;;;;16.34;100.00;98380.53;5059278;28;20021;-95
2022/08/18 03:40:53;;;;;;;9.63;2.53;;;;;;;16.46;100.00;98378.34;5041942;28;20034;-95
2022/08/18 03:43:18;;;;;;;10.38;2.42;;;;;;;16.28;100.00;98379.91;5059928;28;20729;-94
2022/08/18 03:45:45;;;;;;;8.75;2.60;;;;;;;16.17;100.00;98393.47;5070649;28;20024;-96
2022/08/18 03:48:11;;;;;;;8.48;2.53;;;;;;;16.46;100.00;98387.06;5054670;28;20065;-95
2022/08/18 03:50:36;;;;;;;9.93;2.20;;;;;;;16.03;100.00;98381.69;5052769;28;20067;-96
2022/08/18 03:53:03;;;;;;;12.70;2.03;;;;;;;16.24;100.00;98383.56;5053411;28;20029;-96
2022/08/18 03:55:29;;;;;;;11.93;2.58;;;;;;;16.52;100.00;98385.97;5052838;28;20048;-95
2022/08/18 03:58:04;;;;;;;8.32;2.22;;;;;;;16.68;100.00;98373.09;5046552;28;20032;-96
2022/08/18 04:00:32;;;;;;;10.32;2.28;;;;;;;16.80;100.00;98369.09;5050356;28;20016;-96
2022/08/18 04:03:01;;;;;;;9.25;2.30;;;;;;;16.77;100.00;98364.81;5065340;28;20017;-96
2022/08/18 04:05:27;;;;;;;8.82;2.30;;;;;;;16.75;100.00;98366.66;5049604;28;20560;-96
2022/08/18 04:07:53;;;;;;;13.60;2.10;;;;;;;16.72;100.00;98362.34;5063622;28;20025;-96
2022/08/18 04:10:25;;;;;;;8.77;2.20;;;;;;;16.52;100.00;98360.53;5064603;28;20035;-96
2022/08/18 04:12:51;;;;;;;9.25;1.88;;;;;;;16.99;100.00;98359.56;5047127;28;20025;-96
2022/08/18 04:15:18;;;;;;;10.32;2.42;;;;;;;16.60;100.00;98365.47;5068793;28;20070;-96
2022/08/18 04:17:47;;;;;;;7.43;2.00;;;;;;;16.72;100.00;98365.00;5051458;28;20051;-96
2022/08/18 04:20:12;;;;;;;7.97;1.73;;;;;;;16.89;100.00;98363.47;5051717;28;20128;-96
2022/08/18 04:22:39;;;;;;;9.07;2.10;;;;;;;17.21;100.00;98362.13;5064104;28;20123;-96
2022/08/18 04:25:08;;;;;;;8.82;2.25;;;;;;;16.75;100.00;98365.81;5051638;28;20472;-96
2022/08/18 04:27:41;;;;;;;8.70;2.25;;;;;;;16.37;100.00;98369.03;5069120;28;20058;-96
2022/08/18 04:30:08;;;;;;;8.70;2.22;;;;;;;16.45;100.00;98373.97;5050772;28;20522;-96
2022/08/18 04:32:34;;;;;;;11.30;2.83;;;;;;;16.83;100.00;98377.72;5047927;28;20530;-96
2022/08/18 04:35:00;;;;;;;10.00;2.70;;;;;;;16.90;100.00;98373.09;5069574;28;20025;-96
2022/08/18 04:37:26;;;;;;;12.10;3.20;;;;;;;17.03;100.00;98368.19;5052217;28;20028;-96
2022/08/18 04:39:52;;;;;;;13.20;3.47;;;;;;;16.86;100.00;98361.78;5056165;28;20110;-96
2022/08/18 04:42:17;;;;;;;14.43;3.58;;;;;;;17.33;100.00;98355.47;5071161;28;20025;-95
2022/08/18 04:44:43;;;;;;;10.70;3.13;;;;;;;16.75;100.00;98366.66;5069826;28;20024;-96
2022/08/18 04:47:09;;;;;;;12.10;3.35;;;;;;;16.92;100.00;98368.63;5047682;28;20021;-95
2022/08/18 04:49:35;;;;;;;10.02;2.95;;;;;;;16.95;100.00;98372.91;5074020;28;20037;-95
2022/08/18 04:54:47;;;;;;;11.05;3.20;;;;;;;16.99;100.00;98372.75;5083140;28;20067;-95
2022/08/18 04:57:17;;;;;;;10.95;2.85;;;;;;;16.87;100.00;98371.41;5061415;28;20044;-95
2022/08/18 04:59:49;;;;;;;10.48;2.80;;;;;;;17.13;100.00;98363.38;5052138;28;20037;-95
2022/08/18 05:02:17;;;;;;;10.23;2.80;;;;;;;16.90;100.00;98362.56;5050605;28;20074;-96
2022/08/18 05:04:46;;;;;;;7.75;2.40;;;;;;;16.54;100.00;98363.94;5051603;28;20024;-95
2022/08/18 05:07:17;;;;;;;8.18;2.38;;;;;;;16.85;100.00;98361.84;5053467;28;20074;-96
2022/08/18 05:09:43;;;;;;;7.97;2.25;;;;;;;17.04;100.00;98360.22;5064899;28;20028;-95
2022/08/18 05:12:13;;;;;;;8.05;2.03;;;;;;;16.83;100.00;98361.09;5043805;28;20105;-96
2022/08/18 05:14:43;;;;;;;9.70;1.88;;;;;;;17.60;100.00;98341.16;5051586;28;20973;-96
2022/08/18 05:17:10;;;;;;;7.70;1.77;;;;;;;17.16;100.00;98343.03;5043268;28;20029;-96
2022/08/18 05:19:36;;;;;;;8.30;1.80;;;;;;;17.11;100.00;98337.09;5064370;28;20489;-94
2022/08/18 05:22:02;;;;;;;7.65;1.70;;;;;;;17.16;100.00;98336.88;5046668;28;20043;-96
2022/08/18 05:24:31;;;;;;;6.35;1.88;;;;;;;17.38;100.00;98340.34;5064708;28;20021;-96
2022/08/18 05:26:58;;;;;;;10.45;1.90;;;;;;;17.37;100.00;98338.63;5044438;28;20056;-96
2022/08/18 05:29:23;;;;;;;9.35;2.03;;;;;;;17.30;100.00;98341.56;5060277;28;20021;-96
2022/08/18 05:31:51;;;;;;;10.45;1.95;;;;;;;17.33;100.00;98342.31;5047794;28;20061;-95
2022/08/18 05:34:19;;;;;;;9.60;2.20;;;;;;;17.30;100.00;98339.81;5046602;28;20025;-96
2022/08/18 05:36:47;;;;;;;7.72;2.00;;;;;;;16.93;100.00;98337.88;5049335;28;20032;-96
2022/08/18 05:39:32;;;;;;;9.50;2.08;;;;;;;16.57;100.00;98335.81;5063669;28;20181;-94
2022/08/18 05:42:07;;;;;;;6.75;1.85;;;;;;;17.23;100.00;98341.84;5054988;28;20033;-95
2022/08/18 05:44:40;;;;;;;6.00;1.95;;;;;;;17.01;100.00;98347.16;5044344;28;20575;-96
2022/08/18 05:47:12;;;;;;;7.53;1.80;;;;;;;16.97;100.00;98339.47;5047069;28;20104;-96
2022/08/18 05:49:41;;;;;;;7.87;2.10;;;;;;;17.49;100.00;98331.09;5050454;28;20029;-96
2022/08/18 05:52:14;;;;;;;9.23;1.83;;;;;;;17.33;100.00;98330.91;5061466;28;20288;-96
2022/08/18 05:57:43;;;;;;;8.95;2.00;;;;;;;17.13;100.00;98329.13;5044733;28;20056;-96
2022/08/18 06:00:10;;;;;;;6.30;2.00;;;;;;;17.41;100.00;98336.69;5037183;28;20051;-96
2022/08/18 06:02:58;;;;;;;10.15;2.15;;;;;;;16.95;100.00;98350.06;5046081;28;20485;-96
2022/08/18 06:05:52;;;;;;;8.07;2.42;;;;;;;17.39;100.00;98354.38;5058848;28;20025;-96
2022/08/18 06:08:21;;;;;;;;;;;;;;;17.12;100.00;98359.03;5036297;28;20017;-95
2022/08/18 06:10:49;;;;;;;9.57;2.63;;;;;;;17.02;100.00;98359.44;5046138;28;20007;-95
2022/08/18 06:13:18;;;;;;;8.77;2.67;;;;;;;17.19;100.00;98355.22;5040460;28;20041;-96
2022/08/18 06:16:15;;;;;;;8.27;2.40;;;;;;;17.42;100.00;98353.38;5052389;28;20029;-95
2022/08/18 06:19:18;;;;;;;6.25;2.25;;;;;;;17.49;100.00;98355.66;5044808;28;20112;-96
2022/08/18 06:21:56;;;;;;;8.05;2.50;;;;;;;17.04;100.00;98352.31;5054996;28;20025;-95
2022/08/18 06:24:48;;;;;;;8.80;2.70;;;;;;;17.13;100.00;98345.81;5056403;28;20025;-95
2022/08/18 06:27:44;;;;;;;10.00;2.65;;;;;;;17.04;100.00;98348.81;5045119;28;20021;-96
2022/08/18 06:30:18;;;;;;;7.30;2.08;;;;;;;16.98;100.00;98346.44;5057597;28;20033;-96
2022/08/18 06:32:51;;;;;;;8.70;2.83;;;;;;;16.64;100.00;98353.06;5046543;28;20032;-96
2022/08/18 06:35:26;;;;;;;10.90;3.38;;;;;;;16.81;100.00;98355.00;5058451;28;20036;-96
2022/08/18 06:38:39;;;;;;;9.13;3.35;;;;;;;16.73;100.00;98353.53;5040638;28;20030;-96
2022/08/18 06:41:15;;;;;;;11.40;3.83;;;;;;;16.80;100.00;98364.69;5044160;28;20078;-96
2022/08/18 06:43:49;;;;;;;13.90;4.38;;;;;;;16.53;100.00;98362.25;5051426;28;20137;-94
2022/08/18 06:46:22;;;;;;;15.95;5.18;;;;;;;16.82;100.00;98367.25;5046901;28;20501;-95
2022/08/18 06:49:06;;;;;;;12.90;5.28;;;;;;;16.79;100.00;98359.50;5043584;28;20047;-96
2022/08/18 06:51:32;;;;;;;15.35;5.38;;;;;;;16.67;100.00;98355.56;5056835;28;20508;-94
2022/08/18 06:54:25;;;;;;;22.48;6.90;;;;;;;16.61;100.00;98361.94;5041736;28;20131;-95
2022/08/18 06:56:53;;;;;;;21.20;6.07;;;;;;;16.89;100.00;98355.56;5063854;28;20042;-95
2022/08/18 06:59:24;;;;;;;16.35;5.95;;;;;;;16.81;100.00;98358.50;5044356;28;20488;-95
2022/08/18 07:02:11;;;;;;;20.67;5.78;;;;;;;16.75;100.00;98352.63;5052427;28;20037;-96
2022/08/18 07:04:40;;;;;;;20.75;6.10;;;;;;;16.86;100.00;98351.25;5062077;28;20072;-95
2022/08/18 07:07:57;;;;;;;26.95;6.10;;;;;;;16.83;100.00;98354.03;5052358;28;20098;-96
2022/08/18 07:10:41;;;;;;;19.65;6.20;;;;;;;16.83;100.00;98356.66;5026480;28;20017;-93
2022/08/18 07:13:20;;;;;;;16.13;4.78;;;;;;;17.07;100.00;98353.97;5052422;28;20035;-95
2022/08/18 07:15:47;;;;;;;20.35;5.45;;;;;;;17.09;100.00;98352.13;5042207;28;20074;-96
2022/08/18 07:18:16;;;;;;;19.23;4.88;;;;;;;17.17;100.00;98354.44;5076132;22;20013;-92
2022/08/18 07:20:47;;;;;;;17.77;4.60;;;;;;;17.46;100.00;98353.16;5091921;28;20044;-92
2022/08/18 07:23:24;;;;;;;17.60;4.75;;;;;;;17.34;100.00;98336.13;5087525;28;20499;-94
2022/08/18 07:25:58;;;;;;;17.67;4.97;;;;;;;17.21;100.00;98345.47;5080366;28;20057;-94
2022/08/18 07:28:29;;;;;;;13.63;4.50;;;;;;;17.33;100.00;98344.09;5076927;28;20028;-92
2022/08/18 07:31:13;;;;;;;16.27;5.65;;;;;;;17.36;100.00;98344.81;5081186;28;20033;-93
2022/08/18 07:33:42;;;;;;;16.58;4.45;;;;;;;17.19;100.00;98349.97;5078268;28;20123;-93
2022/08/18 07:36:10;;;;;;;11.30;4.53;;;;;;;17.37;100.00;98359.72;5090460;28;20067;-92
2022/08/18 07:38:41;;;;;;;13.73;4.75;;;;;;;17.54;100.00;98344.94;5090424;28;20107;-93
2022/08/18 07:41:26;;;;;;;12.60;4.80;;;;;;;17.36;100.00;98357.97;5082723;28;20024;-93
2022/08/18 07:44:33;;;;;;;12.82;4.57;;;;;;;17.44;100.00;98352.41;5094631;28;20058;-93
2022/08/18 07:47:06;;;;;;;12.52;4.57;;;;;;;17.72;100.00;98345.91;5075473;28;20512;-94
2022/08/18 07:49:36;;;;;;;11.23;4.38;;;;;;;17.46;100.00;98350.53;5088572;28;20040;-93
2022/08/18 07:52:20;;;;;;;14.32;4.55;;;;;;;17.27;100.00;98353.13;5103884;28;20084;-93
2022/08/18 07:54:53;;;;;;;;;;;;;;;17.09;100.00;98353.88;5090474;28;20028;-91
2022/08/18 07:57:52;;;;;;;14.45;5.00;;;;;;;17.68;100.00;98352.25;5077027;28;19920;-93
2022/08/18 08:00:24;;;;;;;15.40;5.63;;;;;;;18.03;100.00;98339.25;5071625;28;20070;-92
2022/08/18 08:02:49;;;;;;;12.60;4.95;;;;;;;17.84;100.00;98334.81;5073944;28;20073;-93
2022/08/18 08:05:23;;;;;;;14.18;4.80;;;;;;;17.97;100.00;98335.13;5072577;28;20020;-94
2022/08/18 08:08:05;;;;;;;14.32;5.93;;;;;;;17.60;100.00;98333.25;5089062;28;20052;-94
2022/08/18 08:10:52;;;;;;;11.88;4.75;;;;;;;18.10;100.00;98335.41;5088037;28;20507;-92
2022/08/18 08:13:39;;;;;;;15.20;4.72;;;;;;;18.07;100.00;98322.34;5087463;28;20043;-94
2022/08/18 08:16:43;;;;;;;13.75;5.35;;;;;;;17.74;100.00;98326.44;5069986;28;20441;-94
2022/08/18 08:19:18;;;;;;;13.40;5.40;;;;;;;18.01;100.00;98336.69;5089858;28;20101;-92
2022/08/18 08:22:04;;;;;;;15.88;6.18;;;;;;;18.11;100.00;98331.84;5067439;28;20532;-93
2022/08/18 08:24:41;;;;;;;14.50;5.75;;;;;;;18.17;100.00;98333.34;5085555;28;20023;-92
2022/08/18 08:27:29;;;;;;;13.55;5.90;;;;;;;18.45;100.00;98342.59;5072563;28;20046;-92
2022/08/18 08:30:14;;;;;;;15.07;5.88;;;;;;;18.06;100.00;98336.47;5071541;28;20028;-92
2022/08/18 08:33:06;;;;;;;15.30;5.63;;;;;;;18.05;100.00;98342.66;5084756;28;20028;-93
2022/08/18 08:35:52;;;;;;;15.38;6.43;;;;;;;18.04;100.00;98347.09;5058254;28;20035;-92
2022/08/18 08:38:24;;;;;;;17.40;5.90;;;;;;;18.06;100.00;98339.09;5072191;28;20036;-93
2022/08/18 08:40:56;;;;;;;16.52;6.60;;;;;;;18.02;100.00;98343.69;5075932;28;20058;-93
2022/08/18 08:43:33;;;;;;;13.97;5.53;;;;;;;17.93;100.00;98330.06;5090929;28;20032;-94
2022/08/18 08:46:11;;;;;;;15.30;5.43;;;;;;;17.72;100.00;98328.28;5091155;28;20020;-93
2022/08/18 08:48:52;;;;;;;12.95;5.32;;;;;;;18.01;100.00;98326.13;5086336;28;20044;-93
2022/08/18 08:51:32;;;;;;;15.60;5.30;;;;;;;18.10;100.00;98316.09;5073127;28;20036;-94
2022/08/18 08:54:16;;;;;;;12.90;5.20;;;;;;;17.72;100.00;98308.97;5069684;28;20033;-94
2022/08/18 08:56:48;;;;;;;12.88;4.57;;;;;;;18.41;100.00;98303.13;5079019;28;20437;-93
2022/08/18 08:59:17;;;;;;;12.02;4.53;;;;;;;18.22;100.00;98289.13;5073948;28;20127;-91
2022/08/18 09:02:08;;;;;;;13.05;4.90;;;;;;;18.40;100.00;98301.41;5089134;28;20036;-93
2022/08/18 09:04:54;;;;;;;11.00;4.60;;;;;;;18.90;100.00;98291.97;5087549;28;20020;-93
2022/08/18 09:07:34;;;;;;;13.32;5.05;;;;;;;18.34;100.00;98280.56;5091754;28;20074;-94
2022/08/18 09:10:38;;;;;;;12.70;5.30;;;;;;;18.55;100.00;98267.25;5087866;28;20039;-95
2022/08/18 09:13:43;;;;;;;13.05;4.97;;;;;;;18.68;100.00;98252.53;5082831;28;20043;-96
2022/08/18 09:16:28;;;;;;;13.48;4.80;;;;;;;18.73;100.00;98254.91;5069675;28;20032;-92
2022/08/18 09:19:11;;;;;;;11.02;4.82;;;;;;;19.04;100.00;98259.53;5082837;28;20702;-93
2022/08/18 09:21:49;;;;;;;12.32;4.90;;;;;;;19.10;100.00;98246.00;5078726;28;20035;-93
2022/08/18 09:24:28;;;;;;;13.50;5.20;;;;;;;19.44;100.00;98241.59;5075259;28;20439;-92
2022/08/18 09:27:22;;;;;;;10.75;4.72;;;;;;;19.68;100.00;98238.56;5072824;28;20605;-93
2022/08/18 09:30:01;;;;;;;10.57;4.72;;;;;;;19.64;100.00;98234.34;5096107;28;20050;-92
2022/08/18 09:32:27;;;;;;;9.52;4.03;;;;;;;20.13;100.00;98226.34;5090102;28;20403;-92
2022/08/18 09:35:02;;;;;;;11.43;4.47;;;;;;;19.65;100.00;98220.16;5094882;28;20574;-94
2022/08/18 09:44:10;;;;;;;11.60;5.05;;;;;;;20.52;100.00;98228.63;5097693;28;20033;-94
2022/08/18 09:46:42;;;;;;;12.07;5.32;;;;;;;20.36;100.00;98224.22;5096593;28;20039;-95
2022/08/18 09:49:22;;;;;;;11.18;4.95;;;;;;;19.87;100.00;98213.75;5075829;28;20147;-93
2022/08/18 09:51:53;;;;;;;13.95;5.72;;;;;;;20.01;100.00;98212.97;5075369;28;20146;-92
2022/08/18 09:54:32;;;;;;;12.57;5.50;;;;;;;20.97;100.00;98200.34;5097194;28;20054;-93
2022/08/18 09:57:16;;;;;;;10.95;5.63;;;;;;;21.08;100.00;98205.00;5098466;28;20036;-91
2022/08/18 09:59:44;;;;;;;12.68;5.22;;;;;;;20.94;100.00;98205.84;5111295;28;20054;-92
2022/08/18 10:02:34;;;;;;;11.00;5.38;;;;;;;21.28;100.00;98190.50;5084062;28;20054;-93
2022/08/18 10:05:15;;;;;;;12.27;5.18;;;;;;;21.82;100.00;98179.19;5099763;28;20028;-93
2022/08/18 10:08:06;;;;;;;14.88;6.35;;;;;;;20.95;100.00;98181.88;5086569;28;20088;-94
2022/08/18 10:10:53;;;;;;;11.57;5.45;;;;;;;21.02;100.00;98186.81;5113948;28;20042;-94
2022/08/18 10:13:47;;;;;;;12.30;5.40;;;;;;;21.47;100.00;98169.84;5096783;28;20055;-93
2022/08/18 10:16:16;;;;;;;13.65;6.15;;;;;;;21.55;100.00;98163.25;5096181;28;20032;-96
2022/08/18 10:18:52;;;;;;;13.65;5.60;;;;;;;21.55;100.00;98161.44;5073481;28;20052;-94
2022/08/18 10:21:28;;;;;;;12.90;6.13;;;;;;;21.61;100.00;98147.78;5087780;28;20044;-95
2022/08/18 10:24:02;;;;;;;12.80;5.72;;;;;;;21.62;100.00;98135.34;5073674;28;20127;-94
2022/08/18 10:26:30;;;;;;;14.05;6.32;;;;;;;21.94;100.00;98130.59;5093748;28;20032;-96
2022/08/18 10:29:31;;;;;;;13.00;6.45;;;;;;;21.98;100.00;98118.81;5072885;28;20043;-94
2022/08/18 10:32:07;;;;;;;14.77;6.70;;;;;;;21.33;100.00;98129.22;5077283;28;20427;-93
2022/08/18 10:35:07;;;;;;;13.85;6.50;;;;;;;21.30;100.00;98112.53;5075798;28;20028;-95
2022/08/18 10:37:46;;;;;;;16.77;7.53;;;;;;;21.41;100.00;98106.56;5085557;28;20154;-94
2022/08/18 10:41:08;;;;;;;13.05;6.72;;;;;;;21.57;100.00;98095.00;5070428;28;20506;-94
2022/08/18 10:43:47;;;;;;;14.43;6.72;;;;;;;21.91;100.00;98095.47;5091669;28;20081;-95
2022/08/18 10:46:20;;;;;;;14.55;6.82;;;;;;;22.94;100.00;98092.94;5089275;28;20461;-93
2022/08/18 10:49:14;;;;;;;14.25;6.50;;;;;;;23.49;100.00;98090.78;5091997;28;20048;-93
2022/08/18 10:52:17;;;;;;;17.05;7.47;;;;;;;22.90;100.00;98099.41;5085501;28;20508;-94
2022/08/18 10:55:27;;;;;;;13.20;6.90;;;;;;;22.96;100.00;98096.31;5099267;28;20028;-93
2022/08/18 10:58:39;;;;;;;14.23;6.65;;;;;;;23.41;100.00;98091.38;5085818;28;20036;-93
2022/08/18 11:01:46;;;;;;;15.60;7.50;;;;;;;23.10;100.00;98104.16;5081665;28;20032;-93
2022/08/18 11:04:32;;;;;;;15.27;7.57;;;;;;;22.54;100.00;98111.66;5086095;28;20050;-93
2022/08/18 11:07:22;;;;;;;14.93;7.10;;;;;;;22.60;100.00;98114.75;5076558;28;20039;-94
2022/08/18 11:09:51;;;;;;;12.90;6.25;;;;;;;22.28;100.00;98115.09;5071782;28;20039;-94
2022/08/18 11:13:02;;;;;;;15.23;6.25;;;;;;;21.97;100.00;98114.47;5092747;28;20053;-93
2022/08/18 11:16:11;;;;;;;14.48;6.40;;;;;;;22.02;100.00;98114.19;5095941;28;20331;-93
2022/08/18 11:18:50;;;;;;;14.00;6.47;;;;;;;22.26;100.00;98106.34;5079065;28;20135;-95
2022/08/18 11:21:35;;;;;;;13.10;6.32;;;;;;;22.26;100.00;98109.00;5068064;28;20029;-94
2022/08/18 11:24:02;;;;;;;11.98;5.28;;;;;;;22.20;100.00;98095.28;5066237;28;20120;-93
2022/08/18 11:26:33;;;;;;;11.07;5.03;;;;;;;21.53;100.00;98096.13;5092916;28;20090;-94
2022/08/18 11:29:22;;;;;;;11.30;4.82;;;;;;;21.91;100.00;98079.53;5076128;28;20033;-96
2022/08/18 11:32:01;;;;;;;11.05;4.82;;;;;;;22.28;100.00;98077.91;5054106;28;20081;-96
2022/08/18 11:34:36;;;;;;;11.27;4.55;;;;;;;22.47;100.00;98082.81;5071659;28;20036;-93
2022/08/18 11:37:31;;;;;;;9.80;4.68;;;;;;;21.93;100.00;98078.44;5078031;28;20036;-94
2022/08/18 11:40:00;;;;;;;10.38;4.50;;;;;;;22.17;100.00;98075.09;5070693;28;20127;-95
2022/08/18 11:42:37;;;;;;;10.70;4.40;;;;;;;22.52;100.00;98071.03;5066213;28;20090;-93
2022/08/18 11:45:16;;;;;;;10.93;5.07;;;;;;;22.15;100.00;98064.59;5083246;28;20016;-94
2022/08/18 11:48:19;;;;;;;11.85;4.47;;;;;;;21.70;100.00;98064.06;5060889;28;20028;-94
2022/08/18 11:51:09;;;;;;;10.43;4.63;;;;;;;21.90;100.00;98068.03;5062537;28;20464;-95
2022/08/18 11:53:50;;;;;;;10.88;4.85;;;;;;;22.15;100.00;98059.28;5062988;28;20068;-95
2022/08/18 11:56:19;;;;;;;9.18;4.22;;;;;;;22.50;100.00;98063.16;5066570;28;20423;-94
2022/08/18 11:59:03;;;;;;;10.45;4.05;;;;;;;22.10;100.00;98065.84;5068817;28;20051;-92
2022/08/18 12:01:43;;;;;;;9.65;3.85;;;;;;;22.40;100.00;98062.09;5069412;28;20099;-94
2022/08/18 12:04:36;;;;;;;7.93;3.53;;;;;;;22.02;100.00;98070.81;5075408;28;20027;-95
2022/08/18 12:07:25;;;;;;;9.07;3.50;;;;;;;21.93;100.00;98059.03;5068543;28;20051;-96
2022/08/18 12:10:23;;;;;;;8.18;3.63;;;;;;;21.70;100.00;98066.72;5095372;28;20104;-96
2022/08/18 12:12:51;;;;;;;11.20;4.10;;;;;;;22.05;100.00;98060.03;5081637;28;20469;-93
2022/08/18 12:15:17;;;;;;;9.50;4.20;;;;;;;21.93;100.00;98062.50;5077858;28;20033;-93
2022/08/18 12:17:44;;;;;;;11.00;5.05;;;;;;;22.48;100.00;98073.91;5079042;28;20039;-94